This is the latest recevied weather packets stored in our database for station/object IZ1UKX-13. If no packets are shown the sender has not sent any weather packets the latest 10 day(s).
| Time | Temp. | Humidity | Pressure | Rain* | Wind** | Luminosity | Snow |
|---|---|---|---|---|---|---|---|
| 1787575518 | 30.56° C | 54% | 1021 hPa | 0 mm | - | 0 W/m² | - |
| 1787575218 | 29.44° C | 55% | 1021 hPa | 0 mm | - | 0 W/m² | - |
| 1787574918 | 29.44° C | 54% | 1021 hPa | 0 mm | - | 0 W/m² | - |
| 1787574618 | 30.56° C | 53% | 1021 hPa | 0 mm | - | 0 W/m² | - |
| 1787574568 | 30.56° C | 53% | 1021 hPa | 0 mm | - | 0 W/m² | - |
| 1787574268 | 32.22° C | 49% | 1020.5 hPa | 0 mm | - | 0 W/m² | - |
| 1787573968 | 33.33° C | 46% | 1020.5 hPa | 0 mm | - | 0 W/m² | - |
| 1787573943 | 33.89° C | 45% | 1023.8 hPa | 0 mm | - | 0 W/m² | - |
| 1787573918 | 33.89° C | 45% | 1020.5 hPa | 0 mm | - | 0 W/m² | - |
| 1787573893 | 33.89° C | 45% | 1020.5 hPa | 0 mm | - | 0 W/m² | - |
| 1787573868 | 33.89° C | 46% | 1020.5 hPa | 0 mm | - | 0 W/m² | - |
| 1787573568 | 33.89° C | 47% | 1020.5 hPa | 0 mm | - | 0 W/m² | - |
| 1787573268 | 33.33° C | 46% | 1020.5 hPa | 0 mm | - | 0 W/m² | - |
| 1787573243 | 33.33° C | 46% | 1020.5 hPa | 0 mm | - | 0 W/m² | - |
| 1787573218 | 33.33° C | 46% | 1020.5 hPa | 0 mm | - | 0 W/m² | - |
| 1787573193 | 33.33° C | 46% | 1020.5 hPa | 0 mm | - | 0 W/m² | - |
| 1787573168 | 33.33° C | 47% | 1020.5 hPa | 0 mm | - | 0 W/m² | - |
| 1787573142 | 33.33° C | 47% | 1020.5 hPa | 0 mm | - | 0 W/m² | - |
| 1787572842 | 33.33° C | 47% | 1020.5 hPa | 0 mm | - | 0 W/m² | - |
| 1787572542 | 33.33° C | 47% | 1020.5 hPa | 0 mm | - | 0 W/m² | - |
| 1787572242 | 33.33° C | 49% | 1020.5 hPa | 0 mm | - | 0 W/m² | - |
| 1787571942 | 32.78° C | 48% | 1020.5 hPa | 0 mm | - | 0 W/m² | - |
| 1787571642 | 32.78° C | 48% | 1020.5 hPa | 0 mm | - | 0 W/m² | - |
| 1787571342 | 32.22° C | 50% | 1020.5 hPa | 0 mm | - | 0 W/m² | - |
| 1787571043 | 31.67° C | 51% | 1020.5 hPa | 0 mm | - | 0 W/m² | - |
* Rain latest hour (hover to see other rain measurements)
** Current wind speed in m/s (hover to see current wind gust speed)